Alfred P Cenac III — WDE5335 — position and weather

sailwx.info

Track history (hours):
 
Tides and Currents Weather Stations Pressure Air Temp Water Temp Dewpoint Dewpoint Depression Visibility Wind Speed Wind Dir Waves Ship Positions

Alfred P Cenac III

Owner: Caillou Island Towing Company, Inc., Houma, LA. More information available from US FCC via Universal Licensing System and Coast Guard Vessel Documentation Center.

Last reported at 2018-Jun-23 11:30 UTC. Time now 2018-Jun-23 11:50 UTC.
Position N 30°14' W 093°15'.

Length 16 m; draft 2 m.

Type: Ship (hazmat cat D). MMSI: 367365210.

Date/timePositionNaut miles runAvg speedWind from/ knotsBaromVisibWave heightAir tempDewpointWater temp
2018-Jun-23 11:30N 30°14' W 093°15'0 0.7
2018-Jun-23 11:00N 30°14' W 093°15'1 2.7
2018-Jun-23 10:30N 30°12' W 093°16'0 0.7
2018-Jun-23 09:59N 30°12' W 093°17'3 6.7
2018-Jun-23 09:30N 30°10' W 093°19'4 7.1
2018-Jun-23 09:01N 30°06' W 093°20'3 5.4
2018-Jun-23 08:30N 30°04' W 093°21'1 1.2
2018-Jun-23 08:00N 30°04' W 093°21'0 0.1
2018-Jun-23 07:30N 30°04' W 093°21'0 0.4
2018-Jun-23 07:01N 30°04' W 093°21'0 0.2
2018-Jun-23 06:29N 30°04' W 093°21'0 0.1
2018-Jun-23 06:00N 30°04' W 093°21'0 0.7
2018-Jun-23 05:31N 30°04' W 093°22'0 0.7
2018-Jun-23 05:01N 30°04' W 093°21'0 0.0
2018-Jun-23 04:31N 30°04' W 093°21'0 0.0
2018-Jun-23 04:01N 30°04' W 093°21'0 0.0
2018-Jun-23 03:31N 30°04' W 093°21'0 0.0
2018-Jun-23 03:00N 30°04' W 093°21'0 0.0
2018-Jun-23 02:31N 30°04' W 093°21'1 1.4
2018-Jun-23 02:01N 30°04' W 093°21'3 5.4
2018-Jun-23 01:31N 30°07' W 093°20'2 3.9
2018-Jun-23 01:01N 30°09' W 093°20'3 6.6
2018-Jun-23 00:30N 30°05' W 093°20'2 4.8
2018-Jun-23 00:01N 30°04' W 093°21'0 0.0
2018-Jun-22 23:31N 30°04' W 093°21'0 0.4
2018-Jun-22 23:01N 30°04' W 093°21'0 0.0
2018-Jun-22 22:31N 30°04' W 093°21'0 0.1
2018-Jun-22 22:00N 30°04' W 093°21'1 2.8
2018-Jun-22 21:31N 30°05' W 093°20'2 4.8
2018-Jun-22 21:00N 30°07' W 093°20'3 6.2
2018-Jun-22 20:31N 30°10' W 093°19'2 3.4
2018-Jun-22 20:00N 30°11' W 093°18'3 5.2
2018-Jun-22 19:30N 30°13' W 093°16'1 2.0
2018-Jun-22 19:00N 30°14' W 093°15'2 3.0
2018-Jun-22 18:31N 30°12' W 093°16'4 7.2
2018-Jun-22 18:01N 30°10' W 093°19'3 6.9
2018-Jun-22 17:31N 30°07' W 093°20'3 5.1
2018-Jun-22 17:00N 30°04' W 093°21'1 2.3
2018-Jun-22 16:30N 30°04' W 093°21'0 0.1
2018-Jun-22 16:01N 30°04' W 093°21'0 0.2
2018-Jun-22 15:31N 30°04' W 093°21'0 0.0
2018-Jun-22 15:01N 30°04' W 093°21'0 0.4
2018-Jun-22 14:30N 30°04' W 093°22'0 0.7
2018-Jun-22 14:00N 30°04' W 093°22'1 1.2
2018-Jun-22 13:30N 30°04' W 093°21'0 0.0
2018-Jun-22 13:00N 30°04' W 093°21'0 0.0
2018-Jun-22 12:31N 30°04' W 093°21'1 1.1
2018-Jun-22 12:01N 30°04' W 093°22'1 1.1
2018-Jun-22 11:31N 30°04' W 093°21'0 0.0
2018-Jun-22 11:01N 30°04' W 093°21'0 0.0
2018-Jun-22 10:31N 30°04' W 093°21'0 0.0
2018-Jun-22 10:01N 30°04' W 093°21'0 0.0
2018-Jun-22 09:31N 30°04' W 093°21'0 0.0
2018-Jun-22 09:00N 30°04' W 093°21'0 0.2
2018-Jun-22 08:30N 30°04' W 093°21'0 0.2
2018-Jun-22 08:01N 30°04' W 093°21'0 0.2
2018-Jun-22 07:30N 30°04' W 093°21'0 0.0
2018-Jun-22 07:00N 30°04' W 093°21'0 0.0
2018-Jun-22 06:30N 30°04' W 093°21'0 0.0
2018-Jun-22 06:00N 30°04' W 093°21'0 0.2
2018-Jun-22 05:31N 30°04' W 093°21'0 0.0
2018-Jun-22 05:01N 30°04' W 093°21'0 0.0
2018-Jun-22 04:30N 30°04' W 093°21'0 0.0
2018-Jun-22 04:00N 30°04' W 093°21'0 0.0
2018-Jun-22 03:30N 30°04' W 093°21'0 0.0
2018-Jun-22 03:00N 30°04' W 093°21'0 0.3
2018-Jun-22 02:30N 30°04' W 093°21'2 4.3
2018-Jun-22 02:01N 30°05' W 093°20'4 7.7
2018-Jun-22 01:31N 30°09' W 093°20'4 7.0
2018-Jun-22 01:01N 30°12' W 093°17'3 5.1
2018-Jun-22 00:30N 30°14' W 093°15'0 0.1
2018-Jun-22 00:00N 30°14' W 093°15'0 0.0
2018-Jun-21 23:30N 30°14' W 093°15'0 0.0
2018-Jun-21 23:01N 30°14' W 093°15'0 0.0
2018-Jun-21 22:31N 30°14' W 093°15'0 0.0
2018-Jun-21 22:00N 30°14' W 093°15'0 0.0
2018-Jun-21 21:28N 30°14' W 093°15'0 0.0
2018-Jun-21 21:01N 30°14' W 093°15'0 0.0
2018-Jun-21 20:30N 30°14' W 093°15'0 0.0
2018-Jun-21 20:00N 30°14' W 093°15'0 0.0
2018-Jun-21 19:30N 30°14' W 093°15'0 0.0
2018-Jun-21 19:00N 30°14' W 093°15'0 0.0
2018-Jun-21 18:30N 30°14' W 093°15'0 0.0
2018-Jun-21 18:01N 30°14' W 093°15'0 0.0
2018-Jun-21 17:30N 30°14' W 093°15'0 0.0
2018-Jun-21 17:01N 30°14' W 093°15'0 0.0
2018-Jun-21 16:30N 30°14' W 093°15'0 0.0
2018-Jun-21 16:01N 30°14' W 093°15'0 0.0
2018-Jun-21 15:30N 30°14' W 093°15'0 0.0
2018-Jun-21 15:01N 30°14' W 093°15'0 0.0
2018-Jun-21 14:30N 30°14' W 093°15'0 0.0
2018-Jun-21 13:59N 30°14' W 093°15'0 0.0
2018-Jun-21 13:30N 30°14' W 093°15'0 0.0
2018-Jun-21 12:59N 30°14' W 093°15'0 0.0
2018-Jun-21 12:30N 30°14' W 093°15'0 0.0
2018-Jun-21 12:00N 30°14' W 093°15'0 0.0
2018-Jun-21 11:31N 30°14' W 093°15'0 0.0
2018-Jun-21 11:01N 30°14' W 093°15'0 0.0
2018-Jun-21 10:31N 30°14' W 093°15'2 3.6
2018-Jun-21 10:00N 30°12' W 093°16'3 6.8
2018-Jun-21 09:30N 30°10' W 093°19'3 6.6
2018-Jun-21 09:01N 30°07' W 093°20'3 6.1
2018-Jun-21 08:31N 30°04' W 093°21'0 0.8
2018-Jun-21 08:01N 30°04' W 093°21'1 1.5
2018-Jun-21 07:30N 30°04' W 093°21'3 5.7
2018-Jun-21 07:00N 30°06' W 093°18'1 1.1
2018-Jun-21 06:30N 30°06' W 093°19'3 6.2
2018-Jun-21 06:00N 30°04' W 093°21'0 0.0
2018-Jun-21 05:30N 30°04' W 093°21'0 0.0
2018-Jun-21 05:00N 30°04' W 093°21'0 0.0
2018-Jun-21 04:31N 30°04' W 093°21'0 0.0
2018-Jun-21 04:00N 30°04' W 093°21'0 0.0
2018-Jun-21 03:31N 30°04' W 093°21'0 0.0
2018-Jun-21 03:01N 30°04' W 093°21'0 0.0
2018-Jun-21 02:31N 30°04' W 093°21'0 0.7
2018-Jun-21 02:01N 30°04' W 093°22'0 0.7
2018-Jun-21 01:31N 30°04' W 093°21'0 0.0
2018-Jun-21 01:01N 30°04' W 093°21'0 0.0
2018-Jun-21 00:31N 30°04' W 093°21'0 0.0
2018-Jun-21 00:00N 30°04' W 093°21'0 0.0
2018-Jun-20 23:30N 30°04' W 093°21'0 0.0
2018-Jun-20 23:00N 30°04' W 093°21'0 0.0
2018-Jun-20 22:30N 30°04' W 093°21'0 0.0
2018-Jun-20 22:00N 30°04' W 093°21'0 0.0
2018-Jun-20 21:30N 30°04' W 093°21'0 0.0
2018-Jun-20 21:00N 30°04' W 093°21'0 0.0
2018-Jun-20 20:30N 30°04' W 093°21'0 0.0
2018-Jun-20 20:01N 30°04' W 093°21'2 4.0
2018-Jun-20 19:30N 30°05' W 093°20'3 6.3
2018-Jun-20 18:58N 30°09' W 093°20'3 6.5
2018-Jun-20 18:30N 30°11' W 093°18'2 3.0
2018-Jun-20 18:00N 30°10' W 093°19'4 7.9
2018-Jun-20 17:30N 30°06' W 093°20'3 5.7
2018-Jun-20 17:00N 30°04' W 093°21'0 0.2
2018-Jun-20 16:30N 30°04' W 093°22'0 0.4
2018-Jun-20 16:00N 30°04' W 093°21'0 0.0
2018-Jun-20 15:30N 30°04' W 093°21'0 0.0
2018-Jun-20 15:00N 30°04' W 093°21'0 0.5
2018-Jun-20 14:30N 30°04' W 093°22'1 2.7
2018-Jun-20 14:01N 30°04' W 093°20'2 4.4
2018-Jun-20 13:30N 30°07' W 093°20'3 5.9
2018-Jun-20 12:59N 30°10' W 093°19'3 6.0
2018-Jun-20 12:30N 30°12' W 093°17'1 2.2
2018-Jun-20 12:00N 30°13' W 093°17'1 2.1
2018-Jun-20 11:30N 30°12' W 093°17'3 6.7
2018-Jun-20 11:00N 30°09' W 093°20'3 6.7
2018-Jun-20 10:30N 30°06' W 093°20'3 5.7
2018-Jun-20 10:00N 30°04' W 093°21'0 0.0
2018-Jun-20 09:30N 30°04' W 093°21'0 0.0
2018-Jun-20 09:01N 30°04' W 093°21'0 0.0
2018-Jun-20 08:30N 30°04' W 093°21'0 0.0
2018-Jun-20 08:00N 30°04' W 093°21'0 0.0
2018-Jun-20 07:31N 30°04' W 093°21'0 0.0
2018-Jun-20 07:00N 30°04' W 093°21'0 0.0
2018-Jun-20 06:30N 30°04' W 093°21'0 0.0
2018-Jun-20 06:00N 30°04' W 093°21'0 0.0
2018-Jun-20 05:30N 30°04' W 093°21'0 0.0
2018-Jun-20 05:01N 30°04' W 093°21'0 0.0
2018-Jun-20 04:30N 30°04' W 093°21'0 0.0
2018-Jun-20 03:59N 30°04' W 093°21'0 0.0
2018-Jun-20 03:30N 30°04' W 093°21'0 0.0
2018-Jun-20 03:00N 30°04' W 093°21'0 0.0
2018-Jun-20 02:29N 30°04' W 093°21'0 0.0
2018-Jun-20 02:00N 30°04' W 093°21'0 0.0
2018-Jun-20 01:30N 30°04' W 093°21'0 0.0
2018-Jun-20 01:00N 30°04' W 093°21'0 0.5
2018-Jun-20 00:30N 30°04' W 093°22'0 0.1
2018-Jun-20 00:00N 30°04' W 093°22'0 0.6
2018-Jun-19 23:30N 30°04' W 093°21'0 0.0
2018-Jun-19 23:00N 30°04' W 093°21'0 0.0
2018-Jun-19 22:31N 30°04' W 093°21'0 0.0
2018-Jun-19 22:00N 30°04' W 093°21'0 0.0
2018-Jun-19 21:30N 30°04' W 093°21'0 0.0
2018-Jun-19 21:00N 30°04' W 093°21'0 0.0
2018-Jun-19 20:30N 30°04' W 093°21'0 0.0
2018-Jun-19 20:00N 30°04' W 093°21'0 0.0
2018-Jun-19 19:30N 30°04' W 093°21'0 0.2
2018-Jun-19 19:00N 30°04' W 093°21'0 0.1
2018-Jun-19 18:30N 30°04' W 093°21'0 0.1
2018-Jun-19 18:00N 30°04' W 093°21'0 0.0
2018-Jun-19 17:30N 30°04' W 093°21'0 0.0
2018-Jun-19 17:00N 30°04' W 093°21'0 0.0
2018-Jun-19 16:30N 30°04' W 093°21'0 0.0
2018-Jun-19 16:00N 30°04' W 093°21'0 0.0
2018-Jun-19 15:31N 30°04' W 093°21'0 0.0
2018-Jun-19 14:58N 30°04' W 093°21'0 0.0
2018-Jun-19 14:30N 30°04' W 093°21'0 0.3
2018-Jun-19 14:00N 30°04' W 093°21'0 0.3
2018-Jun-19 13:30N 30°04' W 093°21'1 1.2
2018-Jun-19 13:00N 30°04' W 093°22'0 0.0
2018-Jun-19 12:30N 30°04' W 093°22'1 1.1
2018-Jun-19 12:00N 30°04' W 093°21'0 0.1
2018-Jun-19 11:31N 30°04' W 093°21'0 0.0
2018-Jun-19 11:00N 30°04' W 093°21'0 0.0
2018-Jun-19 10:30N 30°04' W 093°21'0 0.0
2018-Jun-19 10:00N 30°04' W 093°21'0 0.0
2018-Jun-19 09:29N 30°04' W 093°21'0 0.0
2018-Jun-19 09:00N 30°04' W 093°21'0 0.0
2018-Jun-19 08:30N 30°04' W 093°21'0 0.0
2018-Jun-19 08:00N 30°04' W 093°21'0 0.0
2018-Jun-19 07:30N 30°04' W 093°21'0 0.0
2018-Jun-19 07:01N 30°04' W 093°21'0 0.6
2018-Jun-19 06:30N 30°04' W 093°22'0 0.2
2018-Jun-19 06:00N 30°04' W 093°22'0 0.9
2018-Jun-19 05:31N 30°04' W 093°21'0 0.0
2018-Jun-19 05:00N 30°04' W 093°21'0 0.0
2018-Jun-19 04:31N 30°04' W 093°21'0 0.0
2018-Jun-19 04:01N 30°04' W 093°21'0 0.0
2018-Jun-19 03:30N 30°04' W 093°21'0 0.0
2018-Jun-19 03:00N 30°04' W 093°21'0 0.0
2018-Jun-19 02:30N 30°04' W 093°21'0 0.0
2018-Jun-19 01:59N 30°04' W 093°21'0 0.0
2018-Jun-19 01:30N 30°04' W 093°21'0 0.0
2018-Jun-19 01:00N 30°04' W 093°21'0 0.0
2018-Jun-19 00:30N 30°04' W 093°21'0 0.0
2018-Jun-19 00:00N 30°04' W 093°21'0 0.0
2018-Jun-18 23:30N 30°04' W 093°21'0 0.0
2018-Jun-18 23:00N 30°04' W 093°21'0 0.0
2018-Jun-18 22:30N 30°04' W 093°21'0 0.0
2018-Jun-18 22:01N 30°04' W 093°21'0 0.0
2018-Jun-18 21:30N 30°04' W 093°21'0 0.0
2018-Jun-18 21:00N 30°04' W 093°21'0 0.0
2018-Jun-18 20:30N 30°04' W 093°21'0 0.0
2018-Jun-18 20:01N 30°04' W 093°21'0 0.0
2018-Jun-18 19:31N 30°04' W 093°21'0 0.0
2018-Jun-18 19:00N 30°04' W 093°21'0 0.0
2018-Jun-18 18:31N 30°04' W 093°21'0 0.0
2018-Jun-18 18:00N 30°04' W 093°21'0 0.0
2018-Jun-18 17:30N 30°04' W 093°21'0 0.0
2018-Jun-18 17:01N 30°04' W 093°21'0 0.1
2018-Jun-18 16:30N 30°04' W 093°21'0 0.1
2018-Jun-18 16:00N 30°04' W 093°21'0 0.0
2018-Jun-18 15:30N 30°04' W 093°21'0 0.0
2018-Jun-18 15:00N 30°04' W 093°21'0 0.0
2018-Jun-18 14:30N 30°04' W 093°21'0 0.0
2018-Jun-18 14:01N 30°04' W 093°21'0 0.0
2018-Jun-18 13:30N 30°04' W 093°21'0 0.5
2018-Jun-18 13:00N 30°04' W 093°22'0 0.1
2018-Jun-18 12:30N 30°04' W 093°21'0 0.3
2018-Jun-18 12:00N 30°04' W 093°21'0 0.0
2018-Jun-18 11:30N 30°04' W 093°21'0 0.0
2018-Jun-18 11:01N 30°04' W 093°21'0 0.0
2018-Jun-18 10:30N 30°04' W 093°21'0 0.0
2018-Jun-18 10:00N 30°04' W 093°21'0 0.0
2018-Jun-18 09:31N 30°04' W 093°21'0 0.0
2018-Jun-18 09:00N 30°04' W 093°21'0 0.0
2018-Jun-18 08:30N 30°04' W 093°21'0 0.0
2018-Jun-18 08:00N 30°04' W 093°21'0 0.0
2018-Jun-18 07:30N 30°04' W 093°21'0 0.0
2018-Jun-18 07:00N 30°04' W 093°21'0 0.0
2018-Jun-18 06:30N 30°04' W 093°21'0 0.0
2018-Jun-18 06:00N 30°04' W 093°21'0 0.4
2018-Jun-18 05:30N 30°04' W 093°22'0 0.9
2018-Jun-18 05:00N 30°04' W 093°22'0 0.1
2018-Jun-18 04:31N 30°04' W 093°22'0 0.1
2018-Jun-18 03:59N 30°04' W 093°22'0 0.8
2018-Jun-18 03:30N 30°04' W 093°22'0 0.8
2018-Jun-18 03:00N 30°04' W 093°21'0 0.0
2018-Jun-18 02:30N 30°04' W 093°21'0 0.0
2018-Jun-18 02:00N 30°04' W 093°21'0 0.0
2018-Jun-18 01:30N 30°04' W 093°21'0 0.7
2018-Jun-18 01:01N 30°04' W 093°22'0 0.7
2018-Jun-18 00:30N 30°04' W 093°21'0 0.0
2018-Jun-18 00:01N 30°04' W 093°21'0 0.0
2018-Jun-17 23:27N 30°04' W 093°21'0 0.0
2018-Jun-17 23:00N 30°04' W 093°21'0 0.0
2018-Jun-17 22:30N 30°04' W 093°21'0 0.0
2018-Jun-17 22:01N 30°04' W 093°21'0 0.0
2018-Jun-17 21:31N 30°04' W 093°21'0 0.0
2018-Jun-17 21:01N 30°04' W 093°21'0 0.0
2018-Jun-17 20:31N 30°04' W 093°21'0 0.0
2018-Jun-17 20:01N 30°04' W 093°21'0 0.0
2018-Jun-17 19:29N 30°04' W 093°21'0 0.0
2018-Jun-17 19:01N 30°04' W 093°21'0 0.0
2018-Jun-17 18:30N 30°04' W 093°21'0 0.0
2018-Jun-17 17:59N 30°04' W 093°21'0 0.0
2018-Jun-17 17:30N 30°04' W 093°21'0 0.0
2018-Jun-17 17:00N 30°04' W 093°21'0 0.0
2018-Jun-17 16:31N 30°04' W 093°21'0 0.0
2018-Jun-17 16:00N 30°04' W 093°21'0 0.0
2018-Jun-17 15:30N 30°04' W 093°21'0 0.0
2018-Jun-17 15:00N 30°04' W 093°21'0 0.7
2018-Jun-17 14:30N 30°04' W 093°22'0 0.7
2018-Jun-17 14:00N 30°04' W 093°21'0 0.0
2018-Jun-17 13:30N 30°04' W 093°21'0 0.0
2018-Jun-17 13:00N 30°04' W 093°21'0 0.0
2018-Jun-17 12:30N 30°04' W 093°21'0 0.0
2018-Jun-17 12:01N 30°04' W 093°21'0 0.0
2018-Jun-17 11:31N 30°04' W 093°21'0 0.0
2018-Jun-17 11:01N 30°04' W 093°21'0 0.0
2018-Jun-17 10:31N 30°04' W 093°21'0 0.0
2018-Jun-17 10:01N 30°04' W 093°21'0 0.0
2018-Jun-17 09:30N 30°04' W 093°21'0 0.0
2018-Jun-17 09:00N 30°04' W 093°21'0 0.0
2018-Jun-17 08:30N 30°04' W 093°21'0 0.0
2018-Jun-17 08:00N 30°04' W 093°21'0 0.0
2018-Jun-17 07:31N 30°04' W 093°21'0 0.4
2018-Jun-17 07:00N 30°04' W 093°22'0 0.3
2018-Jun-17 06:30N 30°04' W 093°22'0 0.7
2018-Jun-17 06:00N 30°04' W 093°21'0 0.0
2018-Jun-17 05:30N 30°04' W 093°21'0 0.0
2018-Jun-17 05:01N 30°04' W 093°21'0 0.0
2018-Jun-17 04:31N 30°04' W 093°21'0 0.0
2018-Jun-17 04:01N 30°04' W 093°21'0 0.0
2018-Jun-17 03:30N 30°04' W 093°21'0 0.5
2018-Jun-17 03:00N 30°04' W 093°22'0 0.9
2018-Jun-17 02:30N 30°04' W 093°22'1 1.4
2018-Jun-17 02:00N 30°04' W 093°21'0 0.0
2018-Jun-17 01:29N 30°04' W 093°21'0 0.0
2018-Jun-17 01:00N 30°04' W 093°21'0 0.0
2018-Jun-17 00:31N 30°04' W 093°21'0 0.0
2018-Jun-17 00:01N 30°04' W 093°21'0 0.0
2018-Jun-16 23:30N 30°04' W 093°21'1 1.2
2018-Jun-16 23:00N 30°04' W 093°22'1 1.2
2018-Jun-16 22:31N 30°04' W 093°21'0 0.2
2018-Jun-16 22:00N 30°04' W 093°21'0 0.2
2018-Jun-16 21:31N 30°04' W 093°21'0 0.0
2018-Jun-16 21:01N 30°04' W 093°21'0 0.0
2018-Jun-16 20:31N 30°04' W 093°21'0 0.0
2018-Jun-16 20:01N 30°04' W 093°21'0 0.1
2018-Jun-16 19:30N 30°04' W 093°21'0 0.1
2018-Jun-16 19:01N 30°04' W 093°21'0 0.0
2018-Jun-16 18:31N 30°04' W 093°21'0 0.0
2018-Jun-16 18:00N 30°04' W 093°21'0 0.0
2018-Jun-16 17:31N 30°04' W 093°21'0 0.0
2018-Jun-16 17:01N 30°04' W 093°21'0 0.0
2018-Jun-16 16:31N 30°04' W 093°21'0 0.1
2018-Jun-16 16:00N 30°04' W 093°21'0 0.3
2018-Jun-16 15:30N 30°04' W 093°21'0 0.3
2018-Jun-16 15:00N 30°04' W 093°21'0 0.0
2018-Jun-16 14:31N 30°04' W 093°21'0 0.2
2018-Jun-16 14:00N 30°04' W 093°21'0 0.1
2018-Jun-16 13:30N 30°04' W 093°21'0 0.1
2018-Jun-16 13:00N 30°04' W 093°21'0 0.1
2018-Jun-16 12:31N 30°04' W 093°21'0 0.2
2018-Jun-16 12:00N 30°04' W 093°21'0 0.0
2018-Jun-16 11:31N 30°04' W 093°21'0 0.0
2018-Jun-16 11:01N 30°04' W 093°21'0 0.0
2018-Jun-16 10:31N 30°04' W 093°21'0 0.0
2018-Jun-16 10:00N 30°04' W 093°21'0 0.0
2018-Jun-16 09:30N 30°04' W 093°21'0 0.0
2018-Jun-16 09:00N 30°04' W 093°21'0 0.0
2018-Jun-16 08:30N 30°04' W 093°21'0 0.0
2018-Jun-16 08:00N 30°04' W 093°21'0 0.0
2018-Jun-16 07:30N 30°04' W 093°21'0 0.0
2018-Jun-16 07:00N 30°04' W 093°21'0 0.0
2018-Jun-16 06:31N 30°04' W 093°21'0 0.0
2018-Jun-16 06:00N 30°04' W 093°21'0 0.0
2018-Jun-16 05:30N 30°04' W 093°21'0 0.0
2018-Jun-16 05:00N 30°04' W 093°21'0 0.0
2018-Jun-16 04:31N 30°04' W 093°21'0 0.0
2018-Jun-16 04:01N 30°04' W 093°21'0 0.0
2018-Jun-16 03:30N 30°04' W 093°21'0 0.0
2018-Jun-16 03:01N 30°04' W 093°21'0 0.0
2018-Jun-16 02:30N 30°04' W 093°21'0 0.0
2018-Jun-16 02:01N 30°04' W 093°21'1 1.1
2018-Jun-16 01:31N 30°04' W 093°21'3 5.9
2018-Jun-16 01:00N 30°07' W 093°20'4 7.3
2018-Jun-16 00:31N 30°10' W 093°19'3 6.4
2018-Jun-16 00:01N 30°13' W 093°17'1 2.7
2018-Jun-15 23:31N 30°12' W 093°17'3 5.4
2018-Jun-15 23:01N 30°10' W 093°19'3 5.9
2018-Jun-15 22:30N 30°07' W 093°20'2 4.7
2018-Jun-15 22:00N 30°04' W 093°21'2 3.3
2018-Jun-15 21:31N 30°04' W 093°22'0 0.8
2018-Jun-15 21:01N 30°04' W 093°22'1 1.9
2018-Jun-15 20:30N 30°04' W 093°21'3 5.3
2018-Jun-15 20:01N 30°07' W 093°20'3 6.8
2018-Jun-15 19:31N 30°10' W 093°19'3 5.4
2018-Jun-15 19:00N 30°12' W 093°18'1 2.4
2018-Jun-15 18:30N 30°13' W 093°19'1 1.1
2018-Jun-15 18:00N 30°12' W 093°19'0 0.0
2018-Jun-15 17:31N 30°12' W 093°19'0 0.0
2018-Jun-15 17:00N 30°12' W 093°19'0 0.0
2018-Jun-15 16:30N 30°12' W 093°19'0 0.0
2018-Jun-15 16:00N 30°12' W 093°19'0 0.0
2018-Jun-15 15:30N 30°12' W 093°19'0 0.0
2018-Jun-15 15:00N 30°12' W 093°19'0 0.0
2018-Jun-15 14:30N 30°12' W 093°19'0 0.0
2018-Jun-15 14:00N 30°12' W 093°19'0 0.0
2018-Jun-15 13:30N 30°12' W 093°19'0 0.0
2018-Jun-15 13:00N 30°12' W 093°19'0 0.0
2018-Jun-15 12:31N 30°12' W 093°19'0 0.0
2018-Jun-15 12:00N 30°12' W 093°19'0 0.0
2018-Jun-15 11:30N 30°12' W 093°19'0 0.0
2018-Jun-15 11:01N 30°12' W 093°19'1 1.2
2018-Jun-15 10:30N 30°13' W 093°19'1 1.6
2018-Jun-15 10:00N 30°12' W 093°18'1 2.2
2018-Jun-15 09:31N 30°11' W 093°18'2 4.5
2018-Jun-15 09:01N 30°10' W 093°19'3 6.6
2018-Jun-15 08:31N 30°06' W 093°20'3 5.6
2018-Jun-15 08:00N 30°04' W 093°21'0 0.4
2018-Jun-15 07:30N 30°04' W 093°21'0 0.0
2018-Jun-15 07:00N 30°04' W 093°21'0 0.0
2018-Jun-15 06:31N 30°04' W 093°21'0 0.0
2018-Jun-15 06:00N 30°04' W 093°21'0 0.0
2018-Jun-15 05:31N 30°04' W 093°21'0 0.0
2018-Jun-15 05:00N 30°04' W 093°21'0 0.0
2018-Jun-15 04:31N 30°04' W 093°21'1 1.7
2018-Jun-15 04:00N 30°04' W 093°21'1 1.8
2018-Jun-15 03:31N 30°04' W 093°21'0 0.1
2018-Jun-15 03:01N 30°04' W 093°21'0 0.0
2018-Jun-15 02:31N 30°04' W 093°21'0 0.0
2018-Jun-15 02:01N 30°04' W 093°21'0 0.0
2018-Jun-15 01:30N 30°04' W 093°21'0 0.7
2018-Jun-15 01:00N 30°04' W 093°22'0 0.0
2018-Jun-15 00:30N 30°04' W 093°22'0 0.6
2018-Jun-15 00:00N 30°04' W 093°21'0 0.1
2018-Jun-14 23:30N 30°04' W 093°21'0 0.0
2018-Jun-14 23:00N 30°04' W 093°21'0 0.0
2018-Jun-14 22:30N 30°04' W 093°21'0 0.0
2018-Jun-14 22:00N 30°04' W 093°21'0 0.0
2018-Jun-14 21:30N 30°04' W 093°21'0 0.7
2018-Jun-14 21:00N 30°04' W 093°22'0 0.1
2018-Jun-14 20:30N 30°04' W 093°22'0 0.2
2018-Jun-14 20:00N 30°04' W 093°22'0 0.0
2018-Jun-14 19:30N 30°04' W 093°22'0 0.2
2018-Jun-14 19:00N 30°04' W 093°22'0 0.1
2018-Jun-14 18:30N 30°04' W 093°22'0 0.1
2018-Jun-14 18:00N 30°04' W 093°22'0 0.6
2018-Jun-14 17:30N 30°04' W 093°21'0 0.0
2018-Jun-14 17:00N 30°04' W 093°21'0 0.1
2018-Jun-14 16:30N 30°04' W 093°21'0 0.0
2018-Jun-14 16:00N 30°04' W 093°21'0 0.0
2018-Jun-14 15:30N 30°04' W 093°21'0 0.0
2018-Jun-14 15:00N 30°04' W 093°21'0 0.0
2018-Jun-14 14:30N 30°04' W 093°21'0 0.0
2018-Jun-14 14:00N 30°04' W 093°21'0 0.0
2018-Jun-14 13:30N 30°04' W 093°21'0 0.0
2018-Jun-14 13:00N 30°04' W 093°21'0 1.0
2018-Jun-14 12:30N 30°04' W 093°22'0 0.2
2018-Jun-14 12:00N 30°04' W 093°22'0 0.3
2018-Jun-14 11:30N 30°04' W 093°22'0 0.3
2018-Jun-14 11:00N 30°04' W 093°21'0 0.4
2018-Jun-14 10:30N 30°04' W 093°22'0 0.5
2018-Jun-14 10:00N 30°04' W 093°21'0 0.0
2018-Jun-14 09:29N 30°04' W 093°21'0 0.7
2018-Jun-14 09:00N 30°04' W 093°21'2 3.5
2018-Jun-14 08:30N 30°05' W 093°20'3 5.6
2018-Jun-14 08:00N 30°08' W 093°20'3 5.0
2018-Jun-14 07:30N 30°10' W 093°19'0 0.1
2018-Jun-14 07:00N 30°10' W 093°19'0 0.0
2018-Jun-14 06:30N 30°10' W 093°19'0 0.0
2018-Jun-14 06:00N 30°10' W 093°19'0 0.0
2018-Jun-14 05:30N 30°10' W 093°19'0 0.0
2018-Jun-14 05:00N 30°10' W 093°19'0 0.0
2018-Jun-14 04:30N 30°10' W 093°19'0 0.0
2018-Jun-14 04:00N 30°10' W 093°19'0 0.0
2018-Jun-14 03:30N 30°10' W 093°19'0 0.0
2018-Jun-14 03:00N 30°10' W 093°19'0 0.0
2018-Jun-14 02:30N 30°10' W 093°19'0 0.0
2018-Jun-14 02:00N 30°10' W 093°19'0 0.0
2018-Jun-14 01:30N 30°10' W 093°19'0 0.0
2018-Jun-14 01:00N 30°10' W 093°19'0 0.0
2018-Jun-14 00:30N 30°10' W 093°19'0 0.0
2018-Jun-14 00:00N 30°10' W 093°19'0 0.0
2018-Jun-13 23:30N 30°10' W 093°19'0 0.0
2018-Jun-13 23:00N 30°10' W 093°19'0 0.0
2018-Jun-13 22:30N 30°10' W 093°19'0 0.0
2018-Jun-13 22:00N 30°10' W 093°19'0 0.0
2018-Jun-13 21:30N 30°10' W 093°19'0 0.0
2018-Jun-13 21:00N 30°10' W 093°19'0 0.0
2018-Jun-13 20:30N 30°10' W 093°19'0 0.0
2018-Jun-13 20:00N 30°10' W 093°19'0 0.0
2018-Jun-13 19:30N 30°10' W 093°19'0 0.0
2018-Jun-13 19:00N 30°10' W 093°19'0 0.0
2018-Jun-13 18:30N 30°10' W 093°19'0 0.0
2018-Jun-13 18:00N 30°10' W 093°19'0 0.0
2018-Jun-13 17:30N 30°10' W 093°19'0 0.0
2018-Jun-13 17:00N 30°10' W 093°19'0 0.0
2018-Jun-13 16:30N 30°10' W 093°19'0 0.0
2018-Jun-13 16:00N 30°10' W 093°19'0 0.0
2018-Jun-13 15:30N 30°10' W 093°19'0 0.0
2018-Jun-13 15:00N 30°10' W 093°19'0 0.0
2018-Jun-13 14:30N 30°10' W 093°19'0 0.0
2018-Jun-13 14:00N 30°10' W 093°19'0 0.1
2018-Jun-13 13:30N 30°10' W 093°19'2 4.9
2018-Jun-13 13:00N 30°08' W 093°20'3 6.2
2018-Jun-13 12:30N 30°05' W 093°20'2 3.2
2018-Jun-13 12:00N 30°04' W 093°21'1 1.5
2018-Jun-13 11:30N 30°04' W 093°22'  
Track history (hours):
 
Tides and Currents Weather Stations Pressure Air Temp Water Temp Dewpoint Dewpoint Depression Visibility Wind Speed Wind Dir Waves Ship Positions

Alfred P Cenac III

Owner: Caillou Island Towing Company, Inc., Houma, LA. More information available from US FCC via Universal Licensing System and Coast Guard Vessel Documentation Center.

Last reported at 2018-Jun-23 11:30 UTC. Time now 2018-Jun-23 11:50 UTC.
Position N 30°14' W 093°15'.

Length 16 m; draft 2 m.

Type: Ship (hazmat cat D). MMSI: 367365210.

Date/timePositionNaut miles runAvg speedWind from/ knotsBaromVisibWave heightAir tempDewpointWater temp
2018-Jun-23 11:30N 30°14' W 093°15'0 0.7
2018-Jun-23 11:00N 30°14' W 093°15'1 2.7
2018-Jun-23 10:30N 30°12' W 093°16'0 0.7
2018-Jun-23 09:59N 30°12' W 093°17'3 6.7
2018-Jun-23 09:30N 30°10' W 093°19'4 7.1
2018-Jun-23 09:01N 30°06' W 093°20'3 5.4
2018-Jun-23 08:30N 30°04' W 093°21'1 1.2
2018-Jun-23 08:00N 30°04' W 093°21'0 0.1
2018-Jun-23 07:30N 30°04' W 093°21'0 0.4
2018-Jun-23 07:01N 30°04' W 093°21'0 0.2
2018-Jun-23 06:29N 30°04' W 093°21'0 0.1
2018-Jun-23 06:00N 30°04' W 093°21'0 0.7
2018-Jun-23 05:31N 30°04' W 093°22'0 0.7
2018-Jun-23 05:01N 30°04' W 093°21'0 0.0
2018-Jun-23 04:31N 30°04' W 093°21'0 0.0
2018-Jun-23 04:01N 30°04' W 093°21'0 0.0
2018-Jun-23 03:31N 30°04' W 093°21'0 0.0
2018-Jun-23 03:00N 30°04' W 093°21'0 0.0
2018-Jun-23 02:31N 30°04' W 093°21'1 1.4
2018-Jun-23 02:01N 30°04' W 093°21'3 5.4
2018-Jun-23 01:31N 30°07' W 093°20'2 3.9
2018-Jun-23 01:01N 30°09' W 093°20'3 6.6
2018-Jun-23 00:30N 30°05' W 093°20'2 4.8
2018-Jun-23 00:01N 30°04' W 093°21'0 0.0
2018-Jun-22 23:31N 30°04' W 093°21'0 0.4
2018-Jun-22 23:01N 30°04' W 093°21'0 0.0
2018-Jun-22 22:31N 30°04' W 093°21'0 0.1
2018-Jun-22 22:00N 30°04' W 093°21'1 2.8
2018-Jun-22 21:31N 30°05' W 093°20'2 4.8
2018-Jun-22 21:00N 30°07' W 093°20'3 6.2
2018-Jun-22 20:31N 30°10' W 093°19'2 3.4
2018-Jun-22 20:00N 30°11' W 093°18'3 5.2
2018-Jun-22 19:30N 30°13' W 093°16'1 2.0
2018-Jun-22 19:00N 30°14' W 093°15'2 3.0
2018-Jun-22 18:31N 30°12' W 093°16'4 7.2
2018-Jun-22 18:01N 30°10' W 093°19'3 6.9
2018-Jun-22 17:31N 30°07' W 093°20'3 5.1
2018-Jun-22 17:00N 30°04' W 093°21'1 2.3
2018-Jun-22 16:30N 30°04' W 093°21'0 0.1
2018-Jun-22 16:01N 30°04' W 093°21'0 0.2
2018-Jun-22 15:31N 30°04' W 093°21'0 0.0
2018-Jun-22 15:01N 30°04' W 093°21'0 0.4
2018-Jun-22 14:30N 30°04' W 093°22'0 0.7
2018-Jun-22 14:00N 30°04' W 093°22'1 1.2
2018-Jun-22 13:30N 30°04' W 093°21'0 0.0
2018-Jun-22 13:00N 30°04' W 093°21'0 0.0
2018-Jun-22 12:31N 30°04' W 093°21'1 1.1
2018-Jun-22 12:01N 30°04' W 093°22'1 1.1
2018-Jun-22 11:31N 30°04' W 093°21'0 0.0
2018-Jun-22 11:01N 30°04' W 093°21'0 0.0
2018-Jun-22 10:31N 30°04' W 093°21'0 0.0
2018-Jun-22 10:01N 30°04' W 093°21'0 0.0
2018-Jun-22 09:31N 30°04' W 093°21'0 0.0
2018-Jun-22 09:00N 30°04' W 093°21'0 0.2
2018-Jun-22 08:30N 30°04' W 093°21'0 0.2
2018-Jun-22 08:01N 30°04' W 093°21'0 0.2
2018-Jun-22 07:30N 30°04' W 093°21'0 0.0
2018-Jun-22 07:00N 30°04' W 093°21'0 0.0
2018-Jun-22 06:30N 30°04' W 093°21'0 0.0
2018-Jun-22 06:00N 30°04' W 093°21'0 0.2
2018-Jun-22 05:31N 30°04' W 093°21'0 0.0
2018-Jun-22 05:01N 30°04' W 093°21'0 0.0
2018-Jun-22 04:30N 30°04' W 093°21'0 0.0
2018-Jun-22 04:00N 30°04' W 093°21'0 0.0
2018-Jun-22 03:30N 30°04' W 093°21'0 0.0
2018-Jun-22 03:00N 30°04' W 093°21'0 0.3
2018-Jun-22 02:30N 30°04' W 093°21'2 4.3
2018-Jun-22 02:01N 30°05' W 093°20'4 7.7
2018-Jun-22 01:31N 30°09' W 093°20'4 7.0
2018-Jun-22 01:01N 30°12' W 093°17'3 5.1
2018-Jun-22 00:30N 30°14' W 093°15'0 0.1
2018-Jun-22 00:00N 30°14' W 093°15'0 0.0
2018-Jun-21 23:30N 30°14' W 093°15'0 0.0
2018-Jun-21 23:01N 30°14' W 093°15'0 0.0
2018-Jun-21 22:31N 30°14' W 093°15'0 0.0
2018-Jun-21 22:00N 30°14' W 093°15'0 0.0
2018-Jun-21 21:28N 30°14' W 093°15'0 0.0
2018-Jun-21 21:01N 30°14' W 093°15'0 0.0
2018-Jun-21 20:30N 30°14' W 093°15'0 0.0
2018-Jun-21 20:00N 30°14' W 093°15'0 0.0
2018-Jun-21 19:30N 30°14' W 093°15'0 0.0
2018-Jun-21 19:00N 30°14' W 093°15'0 0.0
2018-Jun-21 18:30N 30°14' W 093°15'0 0.0
2018-Jun-21 18:01N 30°14' W 093°15'0 0.0
2018-Jun-21 17:30N 30°14' W 093°15'0 0.0
2018-Jun-21 17:01N 30°14' W 093°15'0 0.0
2018-Jun-21 16:30N 30°14' W 093°15'0 0.0
2018-Jun-21 16:01N 30°14' W 093°15'0 0.0
2018-Jun-21 15:30N 30°14' W 093°15'0 0.0
2018-Jun-21 15:01N 30°14' W 093°15'0 0.0
2018-Jun-21 14:30N 30°14' W 093°15'0 0.0
2018-Jun-21 13:59N 30°14' W 093°15'0 0.0
2018-Jun-21 13:30N 30°14' W 093°15'0 0.0
2018-Jun-21 12:59N 30°14' W 093°15'0 0.0
2018-Jun-21 12:30N 30°14' W 093°15'0 0.0
2018-Jun-21 12:00N 30°14' W 093°15'0 0.0
2018-Jun-21 11:31N 30°14' W 093°15'0 0.0
2018-Jun-21 11:01N 30°14' W 093°15'0 0.0
2018-Jun-21 10:31N 30°14' W 093°15'2 3.6
2018-Jun-21 10:00N 30°12' W 093°16'3 6.8
2018-Jun-21 09:30N 30°10' W 093°19'3 6.6
2018-Jun-21 09:01N 30°07' W 093°20'3 6.1
2018-Jun-21 08:31N 30°04' W 093°21'0 0.8
2018-Jun-21 08:01N 30°04' W 093°21'1 1.5
2018-Jun-21 07:30N 30°04' W 093°21'3 5.7
2018-Jun-21 07:00N 30°06' W 093°18'1 1.1
2018-Jun-21 06:30N 30°06' W 093°19'3 6.2
2018-Jun-21 06:00N 30°04' W 093°21'0 0.0
2018-Jun-21 05:30N 30°04' W 093°21'0 0.0
2018-Jun-21 05:00N 30°04' W 093°21'0 0.0
2018-Jun-21 04:31N 30°04' W 093°21'0 0.0
2018-Jun-21 04:00N 30°04' W 093°21'0 0.0
2018-Jun-21 03:31N 30°04' W 093°21'0 0.0
2018-Jun-21 03:01N 30°04' W 093°21'0 0.0
2018-Jun-21 02:31N 30°04' W 093°21'0 0.7
2018-Jun-21 02:01N 30°04' W 093°22'0 0.7
2018-Jun-21 01:31N 30°04' W 093°21'0 0.0
2018-Jun-21 01:01N 30°04' W 093°21'0 0.0
2018-Jun-21 00:31N 30°04' W 093°21'0 0.0
2018-Jun-21 00:00N 30°04' W 093°21'0 0.0
2018-Jun-20 23:30N 30°04' W 093°21'0 0.0
2018-Jun-20 23:00N 30°04' W 093°21'0 0.0
2018-Jun-20 22:30N 30°04' W 093°21'0 0.0
2018-Jun-20 22:00N 30°04' W 093°21'0 0.0
2018-Jun-20 21:30N 30°04' W 093°21'0 0.0
2018-Jun-20 21:00N 30°04' W 093°21'0 0.0
2018-Jun-20 20:30N 30°04' W 093°21'0 0.0
2018-Jun-20 20:01N 30°04' W 093°21'2 4.0
2018-Jun-20 19:30N 30°05' W 093°20'3 6.3
2018-Jun-20 18:58N 30°09' W 093°20'3 6.5
2018-Jun-20 18:30N 30°11' W 093°18'2 3.0
2018-Jun-20 18:00N 30°10' W 093°19'4 7.9
2018-Jun-20 17:30N 30°06' W 093°20'3 5.7
2018-Jun-20 17:00N 30°04' W 093°21'0 0.2
2018-Jun-20 16:30N 30°04' W 093°22'0 0.4
2018-Jun-20 16:00N 30°04' W 093°21'0 0.0
2018-Jun-20 15:30N 30°04' W 093°21'0 0.0
2018-Jun-20 15:00N 30°04' W 093°21'0 0.5
2018-Jun-20 14:30N 30°04' W 093°22'1 2.7
2018-Jun-20 14:01N 30°04' W 093°20'2 4.4
2018-Jun-20 13:30N 30°07' W 093°20'3 5.9
2018-Jun-20 12:59N 30°10' W 093°19'3 6.0
2018-Jun-20 12:30N 30°12' W 093°17'1 2.2
2018-Jun-20 12:00N 30°13' W 093°17'1 2.1
2018-Jun-20 11:30N 30°12' W 093°17'3 6.7
2018-Jun-20 11:00N 30°09' W 093°20'3 6.7
2018-Jun-20 10:30N 30°06' W 093°20'3 5.7
2018-Jun-20 10:00N 30°04' W 093°21'0 0.0
2018-Jun-20 09:30N 30°04' W 093°21'0 0.0
2018-Jun-20 09:01N 30°04' W 093°21'0 0.0
2018-Jun-20 08:30N 30°04' W 093°21'0 0.0
2018-Jun-20 08:00N 30°04' W 093°21'0 0.0
2018-Jun-20 07:31N 30°04' W 093°21'0 0.0
2018-Jun-20 07:00N 30°04' W 093°21'0 0.0
2018-Jun-20 06:30N 30°04' W 093°21'0 0.0
2018-Jun-20 06:00N 30°04' W 093°21'0 0.0
2018-Jun-20 05:30N 30°04' W 093°21'0 0.0
2018-Jun-20 05:01N 30°04' W 093°21'0 0.0
2018-Jun-20 04:30N 30°04' W 093°21'0 0.0
2018-Jun-20 03:59N 30°04' W 093°21'0 0.0
2018-Jun-20 03:30N 30°04' W 093°21'0 0.0
2018-Jun-20 03:00N 30°04' W 093°21'0 0.0
2018-Jun-20 02:29N 30°04' W 093°21'0 0.0
2018-Jun-20 02:00N 30°04' W 093°21'0 0.0
2018-Jun-20 01:30N 30°04' W 093°21'0 0.0
2018-Jun-20 01:00N 30°04' W 093°21'0 0.5
2018-Jun-20 00:30N 30°04' W 093°22'0 0.1
2018-Jun-20 00:00N 30°04' W 093°22'0 0.6
2018-Jun-19 23:30N 30°04' W 093°21'0 0.0
2018-Jun-19 23:00N 30°04' W 093°21'0 0.0
2018-Jun-19 22:31N 30°04' W 093°21'0 0.0
2018-Jun-19 22:00N 30°04' W 093°21'0 0.0
2018-Jun-19 21:30N 30°04' W 093°21'0 0.0
2018-Jun-19 21:00N 30°04' W 093°21'0 0.0
2018-Jun-19 20:30N 30°04' W 093°21'0 0.0
2018-Jun-19 20:00N 30°04' W 093°21'0 0.0
2018-Jun-19 19:30N 30°04' W 093°21'0 0.2
2018-Jun-19 19:00N 30°04' W 093°21'0 0.1
2018-Jun-19 18:30N 30°04' W 093°21'0 0.1
2018-Jun-19 18:00N 30°04' W 093°21'0 0.0
2018-Jun-19 17:30N 30°04' W 093°21'0 0.0
2018-Jun-19 17:00N 30°04' W 093°21'0 0.0
2018-Jun-19 16:30N 30°04' W 093°21'0 0.0
2018-Jun-19 16:00N 30°04' W 093°21'0 0.0
2018-Jun-19 15:31N 30°04' W 093°21'0 0.0
2018-Jun-19 14:58N 30°04' W 093°21'0 0.0
2018-Jun-19 14:30N 30°04' W 093°21'0 0.3
2018-Jun-19 14:00N 30°04' W 093°21'0 0.3
2018-Jun-19 13:30N 30°04' W 093°21'1 1.2
2018-Jun-19 13:00N 30°04' W 093°22'0 0.0
2018-Jun-19 12:30N 30°04' W 093°22'1 1.1
2018-Jun-19 12:00N 30°04' W 093°21'0 0.1
2018-Jun-19 11:31N 30°04' W 093°21'0 0.0
2018-Jun-19 11:00N 30°04' W 093°21'0 0.0
2018-Jun-19 10:30N 30°04' W 093°21'0 0.0
2018-Jun-19 10:00N 30°04' W 093°21'0 0.0
2018-Jun-19 09:29N 30°04' W 093°21'0 0.0
2018-Jun-19 09:00N 30°04' W 093°21'0 0.0
2018-Jun-19 08:30N 30°04' W 093°21'0 0.0
2018-Jun-19 08:00N 30°04' W 093°21'0 0.0
2018-Jun-19 07:30N 30°04' W 093°21'0 0.0
2018-Jun-19 07:01N 30°04' W 093°21'0 0.6
2018-Jun-19 06:30N 30°04' W 093°22'0 0.2
2018-Jun-19 06:00N 30°04' W 093°22'0 0.9
2018-Jun-19 05:31N 30°04' W 093°21'0 0.0
2018-Jun-19 05:00N 30°04' W 093°21'0 0.0
2018-Jun-19 04:31N 30°04' W 093°21'0 0.0
2018-Jun-19 04:01N 30°04' W 093°21'0 0.0
2018-Jun-19 03:30N 30°04' W 093°21'0 0.0
2018-Jun-19 03:00N 30°04' W 093°21'0 0.0
2018-Jun-19 02:30N 30°04' W 093°21'0 0.0
2018-Jun-19 01:59N 30°04' W 093°21'0 0.0
2018-Jun-19 01:30N 30°04' W 093°21'0 0.0
2018-Jun-19 01:00N 30°04' W 093°21'0 0.0
2018-Jun-19 00:30N 30°04' W 093°21'0 0.0
2018-Jun-19 00:00N 30°04' W 093°21'0 0.0
2018-Jun-18 23:30N 30°04' W 093°21'0 0.0
2018-Jun-18 23:00N 30°04' W 093°21'0 0.0
2018-Jun-18 22:30N 30°04' W 093°21'0 0.0
2018-Jun-18 22:01N 30°04' W 093°21'0 0.0
2018-Jun-18 21:30N 30°04' W 093°21'0 0.0
2018-Jun-18 21:00N 30°04' W 093°21'0 0.0
2018-Jun-18 20:30N 30°04' W 093°21'0 0.0
2018-Jun-18 20:01N 30°04' W 093°21'0 0.0
2018-Jun-18 19:31N 30°04' W 093°21'0 0.0
2018-Jun-18 19:00N 30°04' W 093°21'0 0.0
2018-Jun-18 18:31N 30°04' W 093°21'0 0.0
2018-Jun-18 18:00N 30°04' W 093°21'0 0.0
2018-Jun-18 17:30N 30°04' W 093°21'0 0.0
2018-Jun-18 17:01N 30°04' W 093°21'0 0.1
2018-Jun-18 16:30N 30°04' W 093°21'0 0.1
2018-Jun-18 16:00N 30°04' W 093°21'0 0.0
2018-Jun-18 15:30N 30°04' W 093°21'0 0.0
2018-Jun-18 15:00N 30°04' W 093°21'0 0.0
2018-Jun-18 14:30N 30°04' W 093°21'0 0.0
2018-Jun-18 14:01N 30°04' W 093°21'0 0.0
2018-Jun-18 13:30N 30°04' W 093°21'0 0.5
2018-Jun-18 13:00N 30°04' W 093°22'0 0.1
2018-Jun-18 12:30N 30°04' W 093°21'0 0.3
2018-Jun-18 12:00N 30°04' W 093°21'0 0.0
2018-Jun-18 11:30N 30°04' W 093°21'0 0.0
2018-Jun-18 11:01N 30°04' W 093°21'0 0.0
2018-Jun-18 10:30N 30°04' W 093°21'0 0.0
2018-Jun-18 10:00N 30°04' W 093°21'0 0.0
2018-Jun-18 09:31N 30°04' W 093°21'0 0.0
2018-Jun-18 09:00N 30°04' W 093°21'0 0.0
2018-Jun-18 08:30N 30°04' W 093°21'0 0.0
2018-Jun-18 08:00N 30°04' W 093°21'0 0.0
2018-Jun-18 07:30N 30°04' W 093°21'0 0.0
2018-Jun-18 07:00N 30°04' W 093°21'0 0.0
2018-Jun-18 06:30N 30°04' W 093°21'0 0.0
2018-Jun-18 06:00N 30°04' W 093°21'0 0.4
2018-Jun-18 05:30N 30°04' W 093°22'0 0.9
2018-Jun-18 05:00N 30°04' W 093°22'0 0.1
2018-Jun-18 04:31N 30°04' W 093°22'0 0.1
2018-Jun-18 03:59N 30°04' W 093°22'0 0.8
2018-Jun-18 03:30N 30°04' W 093°22'0 0.8
2018-Jun-18 03:00N 30°04' W 093°21'0 0.0
2018-Jun-18 02:30N 30°04' W 093°21'0 0.0
2018-Jun-18 02:00N 30°04' W 093°21'0 0.0
2018-Jun-18 01:30N 30°04' W 093°21'0 0.7
2018-Jun-18 01:01N 30°04' W 093°22'0 0.7
2018-Jun-18 00:30N 30°04' W 093°21'0 0.0
2018-Jun-18 00:01N 30°04' W 093°21'0 0.0
2018-Jun-17 23:27N 30°04' W 093°21'0 0.0
2018-Jun-17 23:00N 30°04' W 093°21'0 0.0
2018-Jun-17 22:30N 30°04' W 093°21'0 0.0
2018-Jun-17 22:01N 30°04' W 093°21'0 0.0
2018-Jun-17 21:31N 30°04' W 093°21'0 0.0
2018-Jun-17 21:01N 30°04' W 093°21'0 0.0
2018-Jun-17 20:31N 30°04' W 093°21'0 0.0
2018-Jun-17 20:01N 30°04' W 093°21'0 0.0
2018-Jun-17 19:29N 30°04' W 093°21'0 0.0
2018-Jun-17 19:01N 30°04' W 093°21'0 0.0
2018-Jun-17 18:30N 30°04' W 093°21'0 0.0
2018-Jun-17 17:59N 30°04' W 093°21'0 0.0
2018-Jun-17 17:30N 30°04' W 093°21'0 0.0
2018-Jun-17 17:00N 30°04' W 093°21'0 0.0
2018-Jun-17 16:31N 30°04' W 093°21'0 0.0
2018-Jun-17 16:00N 30°04' W 093°21'0 0.0
2018-Jun-17 15:30N 30°04' W 093°21'0 0.0
2018-Jun-17 15:00N 30°04' W 093°21'0 0.7
2018-Jun-17 14:30N 30°04' W 093°22'0 0.7
2018-Jun-17 14:00N 30°04' W 093°21'0 0.0
2018-Jun-17 13:30N 30°04' W 093°21'0 0.0
2018-Jun-17 13:00N 30°04' W 093°21'0 0.0
2018-Jun-17 12:30N 30°04' W 093°21'0 0.0
2018-Jun-17 12:01N 30°04' W 093°21'0 0.0
2018-Jun-17 11:31N 30°04' W 093°21'0 0.0
2018-Jun-17 11:01N 30°04' W 093°21'0 0.0
2018-Jun-17 10:31N 30°04' W 093°21'0 0.0
2018-Jun-17 10:01N 30°04' W 093°21'0 0.0
2018-Jun-17 09:30N 30°04' W 093°21'0 0.0
2018-Jun-17 09:00N 30°04' W 093°21'0 0.0
2018-Jun-17 08:30N 30°04' W 093°21'0 0.0
2018-Jun-17 08:00N 30°04' W 093°21'0 0.0
2018-Jun-17 07:31N 30°04' W 093°21'0 0.4
2018-Jun-17 07:00N 30°04' W 093°22'0 0.3
2018-Jun-17 06:30N 30°04' W 093°22'0 0.7
2018-Jun-17 06:00N 30°04' W 093°21'0 0.0
2018-Jun-17 05:30N 30°04' W 093°21'0 0.0
2018-Jun-17 05:01N 30°04' W 093°21'0 0.0
2018-Jun-17 04:31N 30°04' W 093°21'0 0.0
2018-Jun-17 04:01N 30°04' W 093°21'0 0.0
2018-Jun-17 03:30N 30°04' W 093°21'0 0.5
2018-Jun-17 03:00N 30°04' W 093°22'0 0.9
2018-Jun-17 02:30N 30°04' W 093°22'1 1.4
2018-Jun-17 02:00N 30°04' W 093°21'0 0.0
2018-Jun-17 01:29N 30°04' W 093°21'0 0.0
2018-Jun-17 01:00N 30°04' W 093°21'0 0.0
2018-Jun-17 00:31N 30°04' W 093°21'0 0.0
2018-Jun-17 00:01N 30°04' W 093°21'0 0.0
2018-Jun-16 23:30N 30°04' W 093°21'1 1.2
2018-Jun-16 23:00N 30°04' W 093°22'1 1.2
2018-Jun-16 22:31N 30°04' W 093°21'0 0.2
2018-Jun-16 22:00N 30°04' W 093°21'0 0.2
2018-Jun-16 21:31N 30°04' W 093°21'0 0.0
2018-Jun-16 21:01N 30°04' W 093°21'0 0.0
2018-Jun-16 20:31N 30°04' W 093°21'0 0.0
2018-Jun-16 20:01N 30°04' W 093°21'0 0.1
2018-Jun-16 19:30N 30°04' W 093°21'0 0.1
2018-Jun-16 19:01N 30°04' W 093°21'0 0.0
2018-Jun-16 18:31N 30°04' W 093°21'0 0.0
2018-Jun-16 18:00N 30°04' W 093°21'0 0.0
2018-Jun-16 17:31N 30°04' W 093°21'0 0.0
2018-Jun-16 17:01N 30°04' W 093°21'0 0.0
2018-Jun-16 16:31N 30°04' W 093°21'0 0.1
2018-Jun-16 16:00N 30°04' W 093°21'0 0.3
2018-Jun-16 15:30N 30°04' W 093°21'0 0.3
2018-Jun-16 15:00N 30°04' W 093°21'0 0.0
2018-Jun-16 14:31N 30°04' W 093°21'0 0.2
2018-Jun-16 14:00N 30°04' W 093°21'0 0.1
2018-Jun-16 13:30N 30°04' W 093°21'0 0.1
2018-Jun-16 13:00N 30°04' W 093°21'0 0.1
2018-Jun-16 12:31N 30°04' W 093°21'0 0.2
2018-Jun-16 12:00N 30°04' W 093°21'0 0.0
2018-Jun-16 11:31N 30°04' W 093°21'0 0.0
2018-Jun-16 11:01N 30°04' W 093°21'0 0.0
2018-Jun-16 10:31N 30°04' W 093°21'0 0.0
2018-Jun-16 10:00N 30°04' W 093°21'0 0.0
2018-Jun-16 09:30N 30°04' W 093°21'0 0.0
2018-Jun-16 09:00N 30°04' W 093°21'0 0.0
2018-Jun-16 08:30N 30°04' W 093°21'0 0.0
2018-Jun-16 08:00N 30°04' W 093°21'0 0.0
2018-Jun-16 07:30N 30°04' W 093°21'0 0.0
2018-Jun-16 07:00N 30°04' W 093°21'0 0.0
2018-Jun-16 06:31N 30°04' W 093°21'0 0.0
2018-Jun-16 06:00N 30°04' W 093°21'0 0.0
2018-Jun-16 05:30N 30°04' W 093°21'0 0.0
2018-Jun-16 05:00N 30°04' W 093°21'0 0.0
2018-Jun-16 04:31N 30°04' W 093°21'0 0.0
2018-Jun-16 04:01N 30°04' W 093°21'0 0.0
2018-Jun-16 03:30N 30°04' W 093°21'0 0.0
2018-Jun-16 03:01N 30°04' W 093°21'0 0.0
2018-Jun-16 02:30N 30°04' W 093°21'0 0.0
2018-Jun-16 02:01N 30°04' W 093°21'1 1.1
2018-Jun-16 01:31N 30°04' W 093°21'3 5.9
2018-Jun-16 01:00N 30°07' W 093°20'4 7.3
2018-Jun-16 00:31N 30°10' W 093°19'3 6.4
2018-Jun-16 00:01N 30°13' W 093°17'1 2.7
2018-Jun-15 23:31N 30°12' W 093°17'3 5.4
2018-Jun-15 23:01N 30°10' W 093°19'3 5.9
2018-Jun-15 22:30N 30°07' W 093°20'2 4.7
2018-Jun-15 22:00N 30°04' W 093°21'2 3.3
2018-Jun-15 21:31N 30°04' W 093°22'0 0.8
2018-Jun-15 21:01N 30°04' W 093°22'1 1.9
2018-Jun-15 20:30N 30°04' W 093°21'3 5.3
2018-Jun-15 20:01N 30°07' W 093°20'3 6.8
2018-Jun-15 19:31N 30°10' W 093°19'3 5.4
2018-Jun-15 19:00N 30°12' W 093°18'1 2.4
2018-Jun-15 18:30N 30°13' W 093°19'1 1.1
2018-Jun-15 18:00N 30°12' W 093°19'0 0.0
2018-Jun-15 17:31N 30°12' W 093°19'0 0.0
2018-Jun-15 17:00N 30°12' W 093°19'0 0.0
2018-Jun-15 16:30N 30°12' W 093°19'0 0.0
2018-Jun-15 16:00N 30°12' W 093°19'0 0.0
2018-Jun-15 15:30N 30°12' W 093°19'0 0.0
2018-Jun-15 15:00N 30°12' W 093°19'0 0.0
2018-Jun-15 14:30N 30°12' W 093°19'0 0.0
2018-Jun-15 14:00N 30°12' W 093°19'0 0.0
2018-Jun-15 13:30N 30°12' W 093°19'0 0.0
2018-Jun-15 13:00N 30°12' W 093°19'0 0.0
2018-Jun-15 12:31N 30°12' W 093°19'0 0.0
2018-Jun-15 12:00N 30°12' W 093°19'0 0.0
2018-Jun-15 11:30N 30°12' W 093°19'0 0.0
2018-Jun-15 11:01N 30°12' W 093°19'1 1.2
2018-Jun-15 10:30N 30°13' W 093°19'1 1.6
2018-Jun-15 10:00N 30°12' W 093°18'1 2.2
2018-Jun-15 09:31N 30°11' W 093°18'2 4.5
2018-Jun-15 09:01N 30°10' W 093°19'3 6.6
2018-Jun-15 08:31N 30°06' W 093°20'3 5.6
2018-Jun-15 08:00N 30°04' W 093°21'0 0.4
2018-Jun-15 07:30N 30°04' W 093°21'0 0.0
2018-Jun-15 07:00N 30°04' W 093°21'0 0.0
2018-Jun-15 06:31N 30°04' W 093°21'0 0.0
2018-Jun-15 06:00N 30°04' W 093°21'0 0.0
2018-Jun-15 05:31N 30°04' W 093°21'0 0.0
2018-Jun-15 05:00N 30°04' W 093°21'0 0.0
2018-Jun-15 04:31N 30°04' W 093°21'1 1.7
2018-Jun-15 04:00N 30°04' W 093°21'1 1.8
2018-Jun-15 03:31N 30°04' W 093°21'0 0.1
2018-Jun-15 03:01N 30°04' W 093°21'0 0.0
2018-Jun-15 02:31N 30°04' W 093°21'0 0.0
2018-Jun-15 02:01N 30°04' W 093°21'0 0.0
2018-Jun-15 01:30N 30°04' W 093°21'0 0.7
2018-Jun-15 01:00N 30°04' W 093°22'0 0.0
2018-Jun-15 00:30N 30°04' W 093°22'0 0.6
2018-Jun-15 00:00N 30°04' W 093°21'0 0.1
2018-Jun-14 23:30N 30°04' W 093°21'0 0.0
2018-Jun-14 23:00N 30°04' W 093°21'0 0.0
2018-Jun-14 22:30N 30°04' W 093°21'0 0.0
2018-Jun-14 22:00N 30°04' W 093°21'0 0.0
2018-Jun-14 21:30N 30°04' W 093°21'0 0.7
2018-Jun-14 21:00N 30°04' W 093°22'0 0.1
2018-Jun-14 20:30N 30°04' W 093°22'0 0.2
2018-Jun-14 20:00N 30°04' W 093°22'0 0.0
2018-Jun-14 19:30N 30°04' W 093°22'0 0.2
2018-Jun-14 19:00N 30°04' W 093°22'0 0.1
2018-Jun-14 18:30N 30°04' W 093°22'0 0.1
2018-Jun-14 18:00N 30°04' W 093°22'0 0.6
2018-Jun-14 17:30N 30°04' W 093°21'0 0.0
2018-Jun-14 17:00N 30°04' W 093°21'0 0.1
2018-Jun-14 16:30N 30°04' W 093°21'0 0.0
2018-Jun-14 16:00N 30°04' W 093°21'0 0.0
2018-Jun-14 15:30N 30°04' W 093°21'0 0.0
2018-Jun-14 15:00N 30°04' W 093°21'0 0.0
2018-Jun-14 14:30N 30°04' W 093°21'0 0.0
2018-Jun-14 14:00N 30°04' W 093°21'0 0.0
2018-Jun-14 13:30N 30°04' W 093°21'0 0.0
2018-Jun-14 13:00N 30°04' W 093°21'0 1.0
2018-Jun-14 12:30N 30°04' W 093°22'0 0.2
2018-Jun-14 12:00N 30°04' W 093°22'0 0.3
2018-Jun-14 11:30N 30°04' W 093°22'0 0.3
2018-Jun-14 11:00N 30°04' W 093°21'0 0.4
2018-Jun-14 10:30N 30°04' W 093°22'0 0.5
2018-Jun-14 10:00N 30°04' W 093°21'0 0.0
2018-Jun-14 09:29N 30°04' W 093°21'0 0.7
2018-Jun-14 09:00N 30°04' W 093°21'2 3.5
2018-Jun-14 08:30N 30°05' W 093°20'3 5.6
2018-Jun-14 08:00N 30°08' W 093°20'3 5.0
2018-Jun-14 07:30N 30°10' W 093°19'0 0.1
2018-Jun-14 07:00N 30°10' W 093°19'0 0.0
2018-Jun-14 06:30N 30°10' W 093°19'0 0.0
2018-Jun-14 06:00N 30°10' W 093°19'0 0.0
2018-Jun-14 05:30N 30°10' W 093°19'0 0.0
2018-Jun-14 05:00N 30°10' W 093°19'0 0.0
2018-Jun-14 04:30N 30°10' W 093°19'0 0.0
2018-Jun-14 04:00N 30°10' W 093°19'0 0.0
2018-Jun-14 03:30N 30°10' W 093°19'0 0.0
2018-Jun-14 03:00N 30°10' W 093°19'0 0.0
2018-Jun-14 02:30N 30°10' W 093°19'0 0.0
2018-Jun-14 02:00N 30°10' W 093°19'0 0.0
2018-Jun-14 01:30N 30°10' W 093°19'0 0.0
2018-Jun-14 01:00N 30°10' W 093°19'0 0.0
2018-Jun-14 00:30N 30°10' W 093°19'0 0.0
2018-Jun-14 00:00N 30°10' W 093°19'0 0.0
2018-Jun-13 23:30N 30°10' W 093°19'0 0.0
2018-Jun-13 23:00N 30°10' W 093°19'0 0.0
2018-Jun-13 22:30N 30°10' W 093°19'0 0.0
2018-Jun-13 22:00N 30°10' W 093°19'0 0.0
2018-Jun-13 21:30N 30°10' W 093°19'0 0.0
2018-Jun-13 21:00N 30°10' W 093°19'0 0.0
2018-Jun-13 20:30N 30°10' W 093°19'0 0.0
2018-Jun-13 20:00N 30°10' W 093°19'0 0.0
2018-Jun-13 19:30N 30°10' W 093°19'0 0.0
2018-Jun-13 19:00N 30°10' W 093°19'0 0.0
2018-Jun-13 18:30N 30°10' W 093°19'0 0.0
2018-Jun-13 18:00N 30°10' W 093°19'0 0.0
2018-Jun-13 17:30N 30°10' W 093°19'0 0.0
2018-Jun-13 17:00N 30°10' W 093°19'0 0.0
2018-Jun-13 16:30N 30°10' W 093°19'0 0.0
2018-Jun-13 16:00N 30°10' W 093°19'0 0.0
2018-Jun-13 15:30N 30°10' W 093°19'0 0.0
2018-Jun-13 15:00N 30°10' W 093°19'0 0.0
2018-Jun-13 14:30N 30°10' W 093°19'0 0.0
2018-Jun-13 14:00N 30°10' W 093°19'0 0.1
2018-Jun-13 13:30N 30°10' W 093°19'2 4.9
2018-Jun-13 13:00N 30°08' W 093°20'3 6.2
2018-Jun-13 12:30N 30°05' W 093°20'2 3.2
2018-Jun-13 12:00N 30°04' W 093°21'1 1.5
2018-Jun-13 11:30N 30°04' W 093°22'  

Dump ship's entire track history